createdAt,value
2023-03-13T00:03:24.935Z,5.00
2023-03-13T00:09:27.629Z,4.90
2023-03-13T00:15:29.736Z,4.70
2023-03-13T00:21:32.607Z,4.60
2023-03-13T00:27:34.903Z,4.50
2023-03-13T00:33:38.958Z,4.40
2023-03-13T00:39:41.041Z,4.20
2023-03-13T00:45:43.240Z,4.10
2023-03-13T00:51:45.570Z,4.10
2023-03-13T00:57:47.944Z,4.00
2023-03-13T01:03:55.969Z,3.90
2023-03-13T01:09:58.568Z,3.90
2023-03-13T01:16:10.056Z,3.80
2023-03-13T01:22:13.698Z,3.90
2023-03-13T01:28:16.572Z,3.90
2023-03-13T01:34:18.936Z,3.90
2023-03-13T01:40:21.509Z,3.80
2023-03-13T01:46:25.663Z,3.80
2023-03-13T01:52:38.136Z,3.60
2023-03-13T01:58:48.597Z,3.60
2023-03-13T02:04:56.807Z,3.60
2023-03-13T02:11:16.251Z,3.50
2023-03-13T02:17:18.484Z,3.70
2023-03-13T02:23:28.000Z,3.70
2023-03-13T02:29:30.454Z,3.70
2023-03-13T02:35:33.890Z,3.70
2023-03-13T02:41:42.632Z,3.60
2023-03-13T02:47:45.364Z,3.40
2023-03-13T02:53:50.930Z,3.40
2023-03-13T02:59:53.941Z,3.30
2023-03-13T03:05:57.187Z,3.30
2023-03-13T03:11:59.595Z,3.20
2023-03-13T03:18:04.641Z,3.10
2023-03-13T03:24:07.577Z,3.00
2023-03-13T03:30:12.212Z,2.90
2023-03-13T03:36:21.605Z,2.90
2023-03-13T03:42:24.881Z,2.80
2023-03-13T03:48:27.495Z,2.80
2023-03-13T03:54:29.882Z,2.80
2023-03-13T04:00:33.668Z,2.70
2023-03-13T04:06:36.155Z,2.60
2023-03-13T04:12:40.832Z,2.60
2023-03-13T04:18:43.667Z,2.50
2023-03-13T04:24:46.723Z,2.50
2023-03-13T04:30:49.064Z,2.50
2023-03-13T04:37:07.038Z,2.40
2023-03-13T04:43:32.172Z,2.50
2023-03-13T04:49:54.493Z,2.60
2023-03-13T04:56:41.623Z,2.70
2023-03-13T05:03:17.370Z,3.20
2023-03-13T05:09:42.406Z,7.80
2023-03-13T05:16:04.753Z,10.80
2023-03-13T05:22:25.720Z,12.70
2023-03-13T05:28:51.660Z,13.80
2023-03-13T05:35:03.799Z,15.20
2023-03-13T05:41:36.863Z,17.00
2023-03-13T05:47:59.420Z,18.50
2023-03-13T05:54:15.646Z,18.40
2023-03-13T06:00:36.258Z,19.50
2023-03-13T06:06:58.335Z,19.30
2023-03-13T06:13:13.760Z,20.90
2023-03-13T06:19:24.747Z,22.20
2023-03-13T06:25:26.947Z,23.00
2023-03-13T06:31:29.120Z,23.60
2023-03-13T06:37:31.547Z,24.00
2023-03-13T06:43:34.634Z,24.50
2023-03-13T06:49:36.954Z,24.50
2023-03-13T06:55:39.572Z,24.80
2023-03-13T07:01:42.063Z,25.30
2023-03-13T07:07:44.951Z,25.00
2023-03-13T07:13:47.506Z,25.50
2023-03-13T07:19:49.740Z,25.30
2023-03-13T07:26:01.468Z,25.80
2023-03-13T07:32:03.974Z,25.70
2023-03-13T07:38:06.371Z,26.10
2023-03-13T07:44:09.405Z,25.80
2023-03-13T07:50:12.635Z,25.90
2023-03-13T07:56:17.906Z,26.10
2023-03-13T08:02:20.241Z,24.40
2023-03-13T08:08:22.762Z,23.00
2023-03-13T08:14:25.400Z,25.10
2023-03-13T08:20:28.254Z,25.20
2023-03-13T08:26:31.214Z,25.60
2023-03-13T08:32:34.766Z,25.90
2023-03-13T08:38:38.165Z,26.60
2023-03-13T08:44:40.553Z,26.60
2023-03-13T08:50:42.992Z,27.00
2023-03-13T08:56:45.728Z,27.40
2023-03-13T09:02:48.159Z,26.90
2023-03-13T09:08:50.514Z,27.00
2023-03-13T09:14:52.819Z,27.20
2023-03-13T09:20:55.364Z,27.50
2023-03-13T09:27:01.420Z,27.40
2023-03-13T09:33:03.780Z,26.80
2023-03-13T09:39:06.159Z,27.10
2023-03-13T09:45:33.150Z,24.90
2023-03-13T09:51:38.866Z,25.60
2023-03-13T09:57:54.332Z,24.70
2023-03-13T10:04:07.089Z,25.70
2023-03-13T10:10:26.049Z,23.50
2023-03-13T10:16:35.306Z,23.20
2023-03-13T10:22:38.542Z,23.50
2023-03-13T10:28:40.867Z,23.10
2023-03-13T10:35:02.811Z,23.00
2023-03-13T10:41:29.700Z,24.50
2023-03-13T10:47:37.947Z,23.60
2023-03-13T10:53:41.907Z,24.60
2023-03-13T10:59:47.256Z,25.20
2023-03-13T11:06:01.937Z,25.10
2023-03-13T11:12:20.867Z,25.50
2023-03-13T11:19:01.940Z,25.30
2023-03-13T11:25:17.761Z,25.30
2023-03-13T11:31:29.965Z,25.10
2023-03-13T11:37:36.099Z,26.70
2023-03-13T11:44:00.059Z,24.90
2023-03-13T11:50:27.150Z,23.70
2023-03-13T11:56:42.158Z,25.40
2023-03-13T12:02:54.734Z,25.20
2023-03-13T12:09:05.233Z,26.30
2023-03-13T12:15:31.065Z,24.30
2023-03-13T12:21:43.087Z,22.40
2023-03-13T12:27:54.723Z,23.00
2023-03-13T12:34:18.983Z,22.50
2023-03-13T12:40:29.306Z,20.60
2023-03-13T12:46:47.072Z,20.80
2023-03-13T12:53:57.148Z,19.30
2023-03-13T13:00:06.404Z,17.60
2023-03-13T13:06:16.875Z,17.50
2023-03-13T13:12:24.679Z,17.10
2023-03-13T13:18:29.759Z,16.70
2023-03-13T13:24:50.017Z,17.20
2023-03-13T13:30:55.740Z,18.80
2023-03-13T13:37:02.733Z,18.00
2023-03-13T13:43:06.731Z,17.50
2023-03-13T13:49:18.771Z,16.50
2023-03-13T13:55:42.600Z,17.50
2023-03-13T14:01:46.192Z,16.20
2023-03-13T14:08:08.621Z,17.40
2023-03-13T14:14:22.010Z,15.60
2023-03-13T14:20:39.240Z,14.80
2023-03-13T14:26:44.584Z,14.50
2023-03-13T14:32:47.896Z,14.00
2023-03-13T14:39:01.483Z,13.70
2023-03-13T14:45:13.817Z,13.40
2023-03-13T14:51:25.598Z,13.20
2023-03-13T14:57:28.910Z,13.10
2023-03-13T15:03:33.724Z,12.90
2023-03-13T15:09:42.968Z,12.80
2023-03-13T15:15:47.283Z,12.60
2023-03-13T15:21:52.283Z,12.50
2023-03-13T15:27:54.582Z,12.30
2023-03-13T15:33:59.510Z,12.10
2023-03-13T15:40:03.415Z,11.90
2023-03-13T15:46:11.412Z,11.80
2023-03-13T15:52:19.079Z,11.60
2023-03-13T15:58:22.416Z,11.40
2023-03-13T16:04:25.143Z,11.30
2023-03-13T16:10:29.224Z,11.10
2023-03-13T16:16:37.426Z,11.00
2023-03-13T16:22:40.075Z,10.90
2023-03-13T16:28:42.631Z,10.70
2023-03-13T16:34:45.059Z,10.70
2023-03-13T16:40:47.435Z,10.50
2023-03-13T16:47:04.477Z,10.40
2023-03-13T16:53:07.663Z,10.30
2023-03-13T16:59:15.937Z,10.20
2023-03-13T17:05:18.801Z,10.10
2023-03-13T17:11:21.726Z,10.10
2023-03-13T17:17:24.261Z,10.10
2023-03-13T17:23:26.708Z,9.90
2023-03-13T17:29:29.074Z,9.80
2023-03-13T17:35:31.531Z,9.60
2023-03-13T17:41:35.621Z,9.60
2023-03-13T17:47:38.129Z,9.50
2023-03-13T17:53:40.366Z,9.40
2023-03-13T17:59:43.017Z,9.30
2023-03-13T18:05:45.293Z,9.10
2023-03-13T18:11:49.226Z,9.10
2023-03-13T18:17:52.815Z,9.00
2023-03-13T18:23:57.343Z,8.90
2023-03-13T18:29:59.551Z,8.70
2023-03-13T18:36:02.465Z,8.60
2023-03-13T18:42:04.692Z,8.60
2023-03-13T18:48:11.242Z,8.50
2023-03-13T18:54:13.798Z,8.40
2023-03-13T19:00:19.767Z,8.40
2023-03-13T19:06:31.939Z,8.10
2023-03-13T19:12:34.255Z,7.90
2023-03-13T19:18:36.609Z,7.80
2023-03-13T19:24:39.072Z,7.60
2023-03-13T19:30:44.166Z,7.50
2023-03-13T19:36:48.739Z,7.40
2023-03-13T19:42:51.069Z,7.20
2023-03-13T19:49:03.968Z,7.10
2023-03-13T19:55:06.735Z,7.10
2023-03-13T20:01:17.103Z,7.10
2023-03-13T20:07:19.959Z,7.00
2023-03-13T20:13:22.936Z,6.90
2023-03-13T20:19:29.472Z,6.80
2023-03-13T20:25:32.020Z,6.70
2023-03-13T20:31:34.329Z,6.70
2023-03-13T20:37:36.570Z,6.60
2023-03-13T20:43:39.424Z,6.50
2023-03-13T20:49:41.921Z,6.40
2023-03-13T20:55:44.648Z,6.40
2023-03-13T21:01:46.884Z,6.40
2023-03-13T21:07:49.291Z,6.90
2023-03-13T21:13:52.047Z,7.10
2023-03-13T21:19:54.241Z,7.00
2023-03-13T21:25:57.003Z,7.00
2023-03-13T21:32:00.006Z,6.90
2023-03-13T21:38:02.516Z,6.90
2023-03-13T21:44:05.052Z,6.80
2023-03-13T21:50:09.055Z,6.80
2023-03-13T21:56:15.636Z,6.70
2023-03-13T22:02:18.295Z,6.60
2023-03-13T22:08:20.886Z,6.40
2023-03-13T22:14:23.499Z,6.30
2023-03-13T22:20:25.979Z,6.20
2023-03-13T22:26:28.094Z,6.00
2023-03-13T22:32:30.861Z,5.90
2023-03-13T22:38:39.164Z,5.70
2023-03-13T22:44:41.360Z,5.60
2023-03-13T22:50:43.579Z,5.50
2023-03-13T22:56:45.669Z,5.40
2023-03-13T23:02:47.966Z,5.40
2023-03-13T23:08:50.844Z,5.30
2023-03-13T23:14:53.070Z,5.30
2023-03-13T23:20:55.417Z,5.30
2023-03-13T23:26:58.119Z,5.20
2023-03-13T23:33:00.364Z,5.20
2023-03-13T23:39:03.495Z,5.30
2023-03-13T23:45:06.934Z,5.20
2023-03-13T23:51:10.214Z,5.20
2023-03-13T23:57:12.426Z,5.20
